General Aviation Weather

Text Reports

Enter one or more of the following location identifiers separated by a space:

Zip Code, Four-Character ICAO or Three-Character IATA airport codes.

METAR - Aviation Routine Weather Report
KTIF - Thedford, Nebraska
Updated at 9:35 AM GMT on July 31, 2014 (4:35 AM CDT):
METAR KTIF 310935Z 24006KT 10SM CLR 18/15 A3013 RMK AO2 T01820150 PWINO
TAF - Terminal Area Forecast
KTIF - Thedford, Nebraska
Updated at 9:35 AM GMT on July 31, 2014 (4:35 AM CDT):
No TAF is currently available for this location.
Decoded:
No decoded TAF is available.
PIREP - Pilot Weather Report
KTIF - Thedford, Nebraska
Updated at 9:35 AM GMT on July 31, 2014 (4:35 AM CDT):
No PIREP is currently available for this location.
AIRMET - Airmens Meteorological Information
KTIF - Thedford, Nebraska
Updated at 9:35 AM GMT on July 31, 2014 (4:35 AM CDT):
No AIRMET is currently available for this location.
SIGMET - Significant Meteorological Information
KTIF - Thedford, Nebraska
Updated at 9:35 AM GMT on July 31, 2014 (4:35 AM CDT):
No SIGMET is currently available for this location.
NOTAM - Notice to Airmen
KTIF - Thedford, Nebraska
Updated at 9:35 AM GMT on July 31, 2014 (4:35 AM CDT):
No NOTAM is currently available for this location.
Forecast Area
KTIF - Thedford, Nebraska
Updated at 9:35 AM GMT on July 31, 2014 (4:35 AM CDT):
No NOTAM is currently available for this location.
Aviation Weather Maps